Time;durP1;ratioP1;P1;durP2;ratioP2;P2;SDS_P1;SDS_P2;PMS_P1;PMS_P2;Temp;Humidity;BMP_temperature;BMP_pressure;BME280_temperature;BME280_humidity;BME280_pressure;Samples;Min_cycle;Max_cycle;Signal;HPM_P1;HPM_P2
2023/12/26 00:00:39;;;;;;;18.33;12.80;;;;;;;;;;4924655;28;20027;-74
2023/12/26 00:03:06;;;;;;;18.42;12.38;;;;;;;;;;4926832;28;20031;-74
2023/12/26 00:05:35;;;;;;;19.27;12.40;;;;;;;;;;4908488;28;20039;-74
2023/12/26 00:08:06;;;;;;;18.20;11.60;;;;;;;;;;4928169;28;20031;-74
2023/12/26 00:10:32;;;;;;;20.15;13.40;;;;;;;;;;4910651;28;20067;-74
2023/12/26 00:13:00;;;;;;;15.70;11.50;;;;;;;;;;4926842;28;20039;-73
2023/12/26 00:15:26;;;;;;;16.52;11.32;;;;;;;;;;4923863;28;20241;-74
2023/12/26 00:17:53;;;;;;;16.23;10.27;;;;;;;;;;4928676;28;20677;-74
2023/12/26 00:20:19;;;;;;;15.65;10.18;;;;;;;;;;4927239;28;20034;-74
2023/12/26 00:22:45;;;;;;;14.07;9.38;;;;;;;;;;4926098;28;20039;-74
2023/12/26 00:25:11;;;;;;;14.70;9.27;;;;;;;;;;4912588;29;20035;-74
2023/12/26 00:27:39;;;;;;;13.30;8.32;;;;;;;;;;4910732;28;20135;-73
2023/12/26 00:30:06;;;;;;;12.40;7.60;;;;;;;;;;4928841;28;20428;-75
2023/12/26 00:32:33;;;;;;;13.10;7.90;;;;;;;;;;4907240;28;20157;-74
2023/12/26 00:34:59;;;;;;;12.77;7.93;;;;;;;;;;4911034;29;20791;-74
2023/12/26 00:37:25;;;;;;;12.88;8.43;;;;;;;;;;4927615;28;20043;-74
2023/12/26 00:39:52;;;;;;;13.10;8.98;;;;;;;;;;4926938;28;20031;-73
2023/12/26 00:42:18;;;;;;;14.70;8.70;;;;;;;;;;4926598;28;20110;-74
2023/12/26 00:44:44;;;;;;;17.92;11.60;;;;;;;;;;4926926;28;20525;-74
2023/12/26 00:47:11;;;;;;;16.70;11.07;;;;;;;;;;4929999;28;20039;-74
2023/12/26 00:49:37;;;;;;;21.83;13.90;;;;;;;;;;4925923;28;20214;-74
2023/12/26 00:52:03;;;;;;;22.90;16.33;;;;;;;;;;4915253;28;20028;-73
2023/12/26 00:54:29;;;;;;;25.40;18.02;;;;;;;;;;4925399;28;20034;-76
2023/12/26 00:56:55;;;;;;;23.17;15.40;;;;;;;;;;4930887;28;20035;-76
2023/12/26 00:59:21;;;;;;;21.83;16.13;;;;;;;;;;4929106;28;20121;-75
2023/12/26 01:01:47;;;;;;;20.67;14.13;;;;;;;;;;4901138;28;20035;-75
2023/12/26 01:04:13;;;;;;;18.00;12.15;;;;;;;;;;4924680;28;21255;-75
2023/12/26 01:06:40;;;;;;;17.33;12.40;;;;;;;;;;4920734;28;20035;-74
2023/12/26 01:09:06;;;;;;;16.38;11.60;;;;;;;;;;4912531;29;20035;-74
2023/12/26 01:11:32;;;;;;;12.20;8.48;;;;;;;;;;4907960;28;20050;-73
2023/12/26 01:13:58;;;;;;;14.48;9.15;;;;;;;;;;4912391;29;20058;-74
2023/12/26 01:16:27;;;;;;;15.45;8.50;;;;;;;;;;4924341;28;20042;-74
2023/12/26 01:18:53;;;;;;;12.77;8.38;;;;;;;;;;4908745;29;20115;-73
2023/12/26 01:21:20;;;;;;;13.18;8.02;;;;;;;;;;4927385;28;20053;-74
2023/12/26 01:23:46;;;;;;;14.32;8.32;;;;;;;;;;4923754;28;20027;-74
2023/12/26 01:26:12;;;;;;;14.05;8.52;;;;;;;;;;4914179;29;20038;-75
2023/12/26 01:28:38;;;;;;;13.20;8.00;;;;;;;;;;4908678;28;20028;-75
2023/12/26 01:31:04;;;;;;;13.15;8.48;;;;;;;;;;4926698;28;20042;-74
2023/12/26 01:33:30;;;;;;;13.85;9.00;;;;;;;;;;4900930;28;20114;-75
2023/12/26 01:35:58;;;;;;;12.98;8.88;;;;;;;;;;4910439;29;20114;-74
2023/12/26 01:38:25;;;;;;;13.50;8.40;;;;;;;;;;4912033;29;20046;-73
2023/12/26 01:40:51;;;;;;;;;;;;;;;;;;4911970;29;20119;-73
2023/12/26 01:43:17;;;;;;;13.25;9.15;;;;;;;;;;4925741;28;19956;-73
2023/12/26 01:45:43;;;;;;;13.52;9.15;;;;;;;;;;4908997;28;20078;-73
2023/12/26 01:48:09;;;;;;;13.05;8.95;;;;;;;;;;4924460;28;20049;-74
2023/12/26 01:50:36;;;;;;;13.13;8.35;;;;;;;;;;4909531;28;20046;-74
2023/12/26 01:53:02;;;;;;;;;;;;;;;;;;4925511;28;20063;-74
2023/12/26 01:55:28;;;;;;;12.30;7.10;;;;;;;;;;4909709;28;19997;-73
2023/12/26 01:57:56;;;;;;;12.52;7.50;;;;;;;;;;4914105;28;20488;-73
2023/12/26 02:00:22;;;;;;;10.88;7.85;;;;;;;;;;4912469;29;20611;-74
2023/12/26 02:02:50;;;;;;;11.30;6.78;;;;;;;;;;4924447;28;20027;-73
2023/12/26 02:05:16;;;;;;;11.10;6.82;;;;;;;;;;4909609;29;20020;-74
2023/12/26 02:07:42;;;;;;;13.30;7.85;;;;;;;;;;4920481;28;20039;-73
2023/12/26 02:10:09;;;;;;;16.17;9.68;;;;;;;;;;4908774;29;20042;-74
2023/12/26 02:12:35;;;;;;;14.13;8.68;;;;;;;;;;4922267;28;20046;-74
2023/12/26 02:15:01;;;;;;;;;;;;;;;;;;4925610;28;20035;-74
2023/12/26 02:17:29;;;;;;;15.38;8.57;;;;;;;;;;4908674;28;19918;-73
2023/12/26 02:19:55;;;;;;;13.07;7.68;;;;;;;;;;4910391;29;20620;-74
2023/12/26 02:22:21;;;;;;;15.88;10.27;;;;;;;;;;4910407;29;20031;-74
2023/12/26 02:24:48;;;;;;;;;;;;;;;;;;4922941;28;20027;-73
2023/12/26 02:27:18;;;;;;;15.65;10.00;;;;;;;;;;4922508;28;20918;-74
2023/12/26 02:29:47;;;;;;;15.35;10.38;;;;;;;;;;4924344;28;20027;-73
2023/12/26 02:32:14;;;;;;;14.13;8.10;;;;;;;;;;4922385;28;20051;-77
2023/12/26 02:34:40;;;;;;;14.18;9.52;;;;;;;;;;4902054;28;20091;-74
2023/12/26 02:37:06;;;;;;;14.25;10.00;;;;;;;;;;4910343;29;20114;-73
2023/12/26 02:39:32;;;;;;;15.15;10.55;;;;;;;;;;4903691;28;20035;-75
2023/12/26 02:41:59;;;;;;;17.98;10.00;;;;;;;;;;4926179;28;20114;-74
2023/12/26 02:44:25;;;;;;;14.75;9.25;;;;;;;;;;4925746;28;20086;-74
2023/12/26 02:46:51;;;;;;;13.43;8.70;;;;;;;;;;4906610;29;20035;-73
2023/12/26 02:49:17;;;;;;;12.48;8.43;;;;;;;;;;4909052;29;20050;-75
2023/12/26 02:51:43;;;;;;;13.55;8.07;;;;;;;;;;4921157;28;20631;-74
2023/12/26 02:54:09;;;;;;;13.90;8.18;;;;;;;;;;4926835;28;20059;-74
2023/12/26 02:56:35;;;;;;;13.57;8.10;;;;;;;;;;4922724;28;20066;-73
2023/12/26 02:59:01;;;;;;;12.02;7.45;;;;;;;;;;4924389;28;20039;-73
2023/12/26 03:01:27;;;;;;;12.70;7.10;;;;;;;;;;4908247;28;20120;-74
2023/12/26 03:03:53;;;;;;;12.02;7.18;;;;;;;;;;4923800;28;20739;-73
2023/12/26 03:06:19;;;;;;;10.95;6.55;;;;;;;;;;4920231;28;20099;-74
2023/12/26 03:08:46;;;;;;;12.57;6.07;;;;;;;;;;4919529;28;20190;-73
2023/12/26 03:11:12;;;;;;;10.10;5.47;;;;;;;;;;4909513;29;20053;-74
2023/12/26 03:13:38;;;;;;;9.77;4.68;;;;;;;;;;4904888;28;20042;-73
2023/12/26 03:16:04;;;;;;;9.00;4.80;;;;;;;;;;4908844;29;20450;-74
2023/12/26 03:18:30;;;;;;;10.80;5.28;;;;;;;;;;4921302;28;20043;-74
2023/12/26 03:20:56;;;;;;;10.57;5.03;;;;;;;;;;4924641;28;20034;-74
2023/12/26 03:23:22;;;;;;;9.60;5.03;;;;;;;;;;4918435;28;20182;-74
2023/12/26 03:25:48;;;;;;;9.80;5.03;;;;;;;;;;4907745;28;20032;-73
2023/12/26 03:28:15;;;;;;;10.05;5.15;;;;;;;;;;4925919;28;20063;-73
2023/12/26 03:30:42;;;;;;;9.55;5.13;;;;;;;;;;4918113;28;20041;-74
2023/12/26 03:33:08;;;;;;;10.45;5.25;;;;;;;;;;4926158;28;20047;-73
2023/12/26 03:35:34;;;;;;;9.65;5.18;;;;;;;;;;4923628;28;20057;-74
2023/12/26 03:38:01;;;;;;;10.05;4.68;;;;;;;;;;4911084;28;20653;-73
2023/12/26 03:40:27;;;;;;;9.07;4.53;;;;;;;;;;4920465;28;21704;-73
2023/12/26 03:42:54;;;;;;;8.75;4.32;;;;;;;;;;4922412;28;20035;-74
2023/12/26 03:45:20;;;;;;;12.52;6.30;;;;;;;;;;4905459;29;20028;-74
2023/12/26 03:47:46;;;;;;;14.43;7.35;;;;;;;;;;4920077;28;21413;-74
2023/12/26 03:50:12;;;;;;;13.10;7.13;;;;;;;;;;4925680;28;20587;-73
2023/12/26 03:52:40;;;;;;;15.00;7.10;;;;;;;;;;4906626;28;20182;-74
2023/12/26 03:55:06;;;;;;;12.95;7.30;;;;;;;;;;4906522;29;20062;-74
2023/12/26 03:57:32;;;;;;;;;;;;;;;;;;4911519;28;20046;-74
2023/12/26 03:59:58;;;;;;;13.00;6.82;;;;;;;;;;4928345;28;19918;-74
2023/12/26 04:02:25;;;;;;;11.98;6.53;;;;;;;;;;4928124;28;20039;-74
2023/12/26 04:04:51;;;;;;;12.52;6.75;;;;;;;;;;4912116;28;20093;-73
2023/12/26 04:07:17;;;;;;;12.13;6.60;;;;;;;;;;4925737;28;20348;-73
2023/12/26 04:09:43;;;;;;;10.95;6.22;;;;;;;;;;4909280;28;20031;-73
2023/12/26 04:12:09;;;;;;;10.27;6.13;;;;;;;;;;4915267;29;20031;-74
2023/12/26 04:14:35;;;;;;;9.75;5.47;;;;;;;;;;4914181;28;20035;-74
2023/12/26 04:17:01;;;;;;;11.02;5.32;;;;;;;;;;4915653;29;20686;-73
2023/12/26 04:19:27;;;;;;;9.82;5.38;;;;;;;;;;4920290;28;20123;-74
2023/12/26 04:21:54;;;;;;;10.15;5.45;;;;;;;;;;4912604;28;20066;-73
2023/12/26 04:24:20;;;;;;;10.00;5.30;;;;;;;;;;4929437;28;20093;-74
2023/12/26 04:26:46;;;;;;;11.23;5.70;;;;;;;;;;4907897;28;20031;-73
2023/12/26 04:29:12;;;;;;;11.25;6.13;;;;;;;;;;4919340;28;20876;-73
2023/12/26 04:31:38;;;;;;;;;;;;;;;;;;4923773;28;20050;-73
2023/12/26 04:34:04;;;;;;;10.32;5.65;;;;;;;;;;4907785;29;19918;-74
2023/12/26 04:36:37;;;;;;;12.27;5.40;;;;;;;;;;4923803;28;20035;-73
2023/12/26 04:39:04;;;;;;;9.82;5.20;;;;;;;;;;4910400;29;20039;-77
2023/12/26 04:41:31;;;;;;;9.55;5.35;;;;;;;;;;4926027;28;20086;-74
2023/12/26 04:43:57;;;;;;;9.55;5.38;;;;;;;;;;4927600;28;20111;-74
2023/12/26 04:46:23;;;;;;;9.77;5.32;;;;;;;;;;4907277;29;20691;-74
2023/12/26 04:48:50;;;;;;;9.75;5.28;;;;;;;;;;4909240;28;20383;-73
2023/12/26 04:51:19;;;;;;;11.32;6.05;;;;;;;;;;4924798;28;20043;-73
2023/12/26 04:53:45;;;;;;;9.90;4.90;;;;;;;;;;4923663;28;20977;-73
2023/12/26 04:56:18;;;;;;;11.00;5.80;;;;;;;;;;4924901;28;20890;-73
2023/12/26 04:58:51;;;;;;;10.02;6.10;;;;;;;;;;4924907;28;20083;-74
2023/12/26 05:01:17;;;;;;;9.82;5.50;;;;;;;;;;4911651;29;20617;-73
2023/12/26 05:03:44;;;;;;;9.55;5.20;;;;;;;;;;4912938;28;20466;-73
2023/12/26 05:06:11;;;;;;;10.02;5.55;;;;;;;;;;4913584;29;20110;-73
2023/12/26 05:08:38;;;;;;;9.95;5.90;;;;;;;;;;4908990;28;20102;-74
2023/12/26 05:11:04;;;;;;;11.00;5.60;;;;;;;;;;4923363;28;20118;-74
2023/12/26 05:13:30;;;;;;;9.73;6.00;;;;;;;;;;4905717;28;20071;-73
2023/12/26 05:15:56;;;;;;;10.88;6.57;;;;;;;;;;4907324;29;20031;-74
2023/12/26 05:18:22;;;;;;;11.27;6.72;;;;;;;;;;4923489;28;20035;-73
2023/12/26 05:20:48;;;;;;;11.45;5.63;;;;;;;;;;4923282;28;20028;-73
2023/12/26 05:23:15;;;;;;;11.18;6.20;;;;;;;;;;4911176;29;20684;-73
2023/12/26 05:25:41;;;;;;;11.48;5.63;;;;;;;;;;4920904;28;20110;-74
2023/12/26 05:28:07;;;;;;;12.18;5.43;;;;;;;;;;4911505;29;20041;-73
2023/12/26 05:30:33;;;;;;;8.68;4.70;;;;;;;;;;4920161;28;20036;-74
2023/12/26 05:32:59;;;;;;;;;;;;;;;;;;4905600;29;20056;-74
2023/12/26 05:35:25;;;;;;;8.52;4.63;;;;;;;;;;4909240;29;19925;-73
2023/12/26 05:37:51;;;;;;;9.50;4.45;;;;;;;;;;4925945;28;20031;-73
2023/12/26 05:40:18;;;;;;;8.35;3.85;;;;;;;;;;4912727;29;20058;-73
2023/12/26 05:42:44;;;;;;;10.88;3.90;;;;;;;;;;4919793;28;20512;-74
2023/12/26 05:45:10;;;;;;;7.95;3.75;;;;;;;;;;4911806;29;20028;-74
2023/12/26 05:47:36;;;;;;;8.57;4.05;;;;;;;;;;4920128;28;20063;-72
2023/12/26 05:50:03;;;;;;;9.10;4.43;;;;;;;;;;4924376;28;20027;-74
2023/12/26 05:52:29;;;;;;;9.98;4.88;;;;;;;;;;4912188;28;20774;-74
2023/12/26 05:54:55;;;;;;;9.73;4.40;;;;;;;;;;4910377;29;20097;-75
2023/12/26 05:57:21;;;;;;;8.75;4.13;;;;;;;;;;4910506;29;20020;-74
2023/12/26 05:59:47;;;;;;;10.23;4.65;;;;;;;;;;4918304;28;20043;-75
2023/12/26 06:02:13;;;;;;;9.75;4.88;;;;;;;;;;4912203;29;20130;-74
2023/12/26 06:04:39;;;;;;;8.65;4.05;;;;;;;;;;4907666;28;20749;-74
2023/12/26 06:07:06;;;;;;;10.05;4.40;;;;;;;;;;4923913;28;20035;-75
2023/12/26 06:09:32;;;;;;;10.27;4.25;;;;;;;;;;4903398;28;20042;-74
2023/12/26 06:11:58;;;;;;;8.15;3.90;;;;;;;;;;4925548;28;20031;-75
2023/12/26 06:14:25;;;;;;;11.25;4.40;;;;;;;;;;4926782;28;20035;-75
2023/12/26 06:16:51;;;;;;;9.63;4.50;;;;;;;;;;4923271;28;20038;-74
2023/12/26 06:19:17;;;;;;;8.85;4.60;;;;;;;;;;4928988;28;20039;-75
2023/12/26 06:21:43;;;;;;;;;;;;;;;;;;4920825;28;20082;-75
2023/12/26 06:24:09;;;;;;;8.45;4.28;;;;;;;;;;4908692;29;19918;-75
2023/12/26 06:26:35;;;;;;;9.80;3.97;;;;;;;;;;4919333;28;20031;-74
2023/12/26 06:29:02;;;;;;;8.45;3.95;;;;;;;;;;4905506;29;20130;-75
2023/12/26 06:31:28;;;;;;;7.97;3.90;;;;;;;;;;4904229;28;20046;-74
2023/12/26 06:33:54;;;;;;;13.15;4.60;;;;;;;;;;4923246;28;20045;-74
2023/12/26 06:36:21;;;;;;;8.63;4.05;;;;;;;;;;4925885;28;20825;-74
2023/12/26 06:38:47;;;;;;;9.65;4.10;;;;;;;;;;4904832;28;20040;-74
2023/12/26 06:41:14;;;;;;;10.40;4.07;;;;;;;;;;4923772;28;20027;-74
2023/12/26 06:43:40;;;;;;;;;;;;;;;;;;4923577;28;20032;-74
2023/12/26 06:46:06;;;;;;;11.00;5.10;;;;;;;;;;4924313;28;19921;-74
2023/12/26 06:48:32;;;;;;;9.18;5.00;;;;;;;;;;4921861;28;20170;-74
2023/12/26 06:50:58;;;;;;;10.77;5.28;;;;;;;;;;4912088;29;20027;-74
2023/12/26 06:53:24;;;;;;;10.07;4.68;;;;;;;;;;4905950;29;20042;-74
2023/12/26 06:55:51;;;;;;;9.32;4.10;;;;;;;;;;4923532;28;20043;-75
2023/12/26 06:58:17;;;;;;;8.57;4.13;;;;;;;;;;4923536;28;20616;-74
2023/12/26 07:00:43;;;;;;;11.50;5.10;;;;;;;;;;4924562;28;20072;-74
2023/12/26 07:03:11;;;;;;;10.77;6.80;;;;;;;;;;4909799;29;20042;-74
2023/12/26 07:05:37;;;;;;;12.27;8.30;;;;;;;;;;4923870;28;20044;-73
2023/12/26 07:08:03;;;;;;;13.15;6.82;;;;;;;;;;4924841;28;20498;-75
2023/12/26 07:10:29;;;;;;;10.73;5.68;;;;;;;;;;4927892;28;20122;-74
2023/12/26 07:12:55;;;;;;;9.70;5.28;;;;;;;;;;4928954;28;20065;-73
2023/12/26 07:15:21;;;;;;;9.85;4.80;;;;;;;;;;4929115;28;20027;-72
2023/12/26 07:17:48;;;;;;;11.13;4.82;;;;;;;;;;4925819;28;20119;-75
2023/12/26 07:20:14;;;;;;;10.27;5.00;;;;;;;;;;4910782;29;20589;-73
2023/12/26 07:22:40;;;;;;;10.40;4.80;;;;;;;;;;4909716;28;20038;-74
2023/12/26 07:25:06;;;;;;;10.98;4.82;;;;;;;;;;4915906;29;20608;-73
2023/12/26 07:27:32;;;;;;;10.55;5.55;;;;;;;;;;4909727;28;20043;-73
2023/12/26 07:29:58;;;;;;;11.55;5.13;;;;;;;;;;4927870;28;20576;-73
2023/12/26 07:32:24;;;;;;;14.20;5.40;;;;;;;;;;4930713;28;20069;-73
2023/12/26 07:34:50;;;;;;;10.57;5.20;;;;;;;;;;4926376;28;20027;-73
2023/12/26 07:37:17;;;;;;;12.63;5.40;;;;;;;;;;4914957;29;20226;-74
2023/12/26 07:39:43;;;;;;;11.40;4.70;;;;;;;;;;4925066;28;20031;-74
2023/12/26 07:42:09;;;;;;;10.32;4.68;;;;;;;;;;4929438;28;20035;-74
2023/12/26 07:44:35;;;;;;;9.50;4.43;;;;;;;;;;4922857;28;20138;-74
2023/12/26 07:47:01;;;;;;;10.45;4.30;;;;;;;;;;4929132;28;20031;-73
2023/12/26 07:49:27;;;;;;;8.93;4.68;;;;;;;;;;4909622;28;20031;-74
2023/12/26 07:51:53;;;;;;;9.95;5.35;;;;;;;;;;4911954;29;20118;-74
2023/12/26 07:54:19;;;;;;;15.55;7.32;;;;;;;;;;4928727;28;20058;-73
2023/12/26 07:56:45;;;;;;;13.10;6.93;;;;;;;;;;4912732;28;20047;-74
2023/12/26 07:59:13;;;;;;;13.02;6.35;;;;;;;;;;4924810;28;20038;-74
2023/12/26 08:01:39;;;;;;;12.23;6.60;;;;;;;;;;4907749;28;20032;-74
2023/12/26 08:04:06;;;;;;;12.63;5.68;;;;;;;;;;4911920;29;20147;-74
2023/12/26 08:06:32;;;;;;;10.80;5.15;;;;;;;;;;4925012;28;20066;-74
2023/12/26 08:08:58;;;;;;;9.40;4.82;;;;;;;;;;4929483;28;20035;-73
2023/12/26 08:11:24;;;;;;;8.50;4.82;;;;;;;;;;4926704;28;20043;-74
2023/12/26 08:13:50;;;;;;;8.27;4.88;;;;;;;;;;4923846;28;20066;-73
2023/12/26 08:16:17;;;;;;;16.05;11.02;;;;;;;;;;4916852;29;20958;-74
2023/12/26 08:18:43;;;;;;;24.08;16.88;;;;;;;;;;4920715;28;20086;-74
2023/12/26 08:21:09;;;;;;;22.65;16.88;;;;;;;;;;4927137;28;20031;-74
2023/12/26 08:23:36;;;;;;;18.63;13.70;;;;;;;;;;4912214;28;20883;-74
2023/12/26 08:26:11;;;;;;;16.33;11.77;;;;;;;;;;4928524;28;20550;-74
2023/12/26 08:28:37;;;;;;;18.05;11.35;;;;;;;;;;4909630;28;20366;-74
2023/12/26 08:31:03;;;;;;;15.52;9.25;;;;;;;;;;4911353;29;20035;-74
2023/12/26 08:33:31;;;;;;;;;;;;;;;;;;4922951;28;20867;-74
2023/12/26 08:35:57;;;;;;;13.98;8.48;;;;;;;;;;4926673;28;19918;-75
2023/12/26 08:38:23;;;;;;;17.45;7.50;;;;;;;;;;4911401;29;20031;-74
2023/12/26 08:40:50;;;;;;;;;;;;;;;;;;4925342;28;20028;-74
2023/12/26 08:43:16;;;;;;;11.10;7.10;;;;;;;;;;4910860;28;19914;-74
2023/12/26 08:45:42;;;;;;;;;;;;;;;;;;4906311;28;20475;-74
2023/12/26 08:48:09;;;;;;;12.35;6.85;;;;;;;;;;4914582;29;20540;-74
2023/12/26 08:50:36;;;;;;;11.48;6.57;;;;;;;;;;4912359;28;20603;-74
2023/12/26 08:53:02;;;;;;;;;;;;;;;;;;4924105;28;20062;-76
2023/12/26 08:55:28;;;;;;;11.25;6.22;;;;;;;;;;4924511;28;20009;-74
2023/12/26 08:57:54;;;;;;;;;;;;;;;;;;4927328;28;20031;-74
2023/12/26 09:00:20;;;;;;;16.23;7.43;;;;;;;;;;4926229;28;19914;-74
2023/12/26 09:02:46;;;;;;;17.17;8.52;;;;;;;;;;4910451;28;20039;-74
2023/12/26 09:05:12;;;;;;;;;;;;;;;;;;4914296;29;20022;-74
2023/12/26 09:07:40;;;;;;;19.83;7.88;;;;;;;;;;4924001;28;19918;-76
2023/12/26 09:10:06;;;;;;;15.95;7.10;;;;;;;;;;4911732;29;21075;-75
2023/12/26 09:12:32;;;;;;;14.63;6.88;;;;;;;;;;4923107;28;20046;-76
2023/12/26 09:14:58;;;;;;;;;;;;;;;;;;4925810;28;20039;-75
2023/12/26 09:17:24;;;;;;;12.27;4.88;;;;;;;;;;4925526;28;19972;-75
2023/12/26 09:19:50;;;;;;;10.98;5.15;;;;;;;;;;4925540;28;20035;-75
2023/12/26 09:22:17;;;;;;;12.10;5.60;;;;;;;;;;4910716;28;20035;-75
2023/12/26 09:24:43;;;;;;;14.07;7.35;;;;;;;;;;4923247;28;20046;-75
2023/12/26 09:27:09;;;;;;;13.98;9.30;;;;;;;;;;4924327;28;20039;-75
2023/12/26 09:29:35;;;;;;;20.92;13.45;;;;;;;;;;4906600;28;20484;-76
2023/12/26 09:32:01;;;;;;;20.83;13.63;;;;;;;;;;4914479;29;20059;-75
2023/12/26 09:34:28;;;;;;;21.48;13.13;;;;;;;;;;4905646;28;20086;-76
2023/12/26 09:36:54;;;;;;;17.48;10.95;;;;;;;;;;4910308;29;20146;-75
2023/12/26 09:39:20;;;;;;;19.02;10.35;;;;;;;;;;4915137;29;20041;-75
2023/12/26 09:41:52;;;;;;;16.50;9.38;;;;;;;;;;4921912;28;20377;-75
2023/12/26 09:44:19;;;;;;;14.73;9.32;;;;;;;;;;4926692;28;20425;-75
2023/12/26 09:46:45;;;;;;;13.00;8.75;;;;;;;;;;4925746;28;20883;-76
2023/12/26 09:49:11;;;;;;;13.88;9.30;;;;;;;;;;4929714;28;20063;-75
2023/12/26 09:51:40;;;;;;;13.82;9.07;;;;;;;;;;4905548;28;20043;-75
2023/12/26 09:54:07;;;;;;;14.90;9.45;;;;;;;;;;4906014;29;20028;-75
2023/12/26 09:56:34;;;;;;;14.60;10.20;;;;;;;;;;4920912;28;20071;-75
2023/12/26 09:59:01;;;;;;;14.30;9.32;;;;;;;;;;4912501;29;20695;-76
2023/12/26 10:01:28;;;;;;;13.80;9.52;;;;;;;;;;4923884;28;20027;-75
2023/12/26 10:03:56;;;;;;;16.63;11.68;;;;;;;;;;4921346;28;20019;-75
2023/12/26 10:06:22;;;;;;;21.88;16.52;;;;;;;;;;4925864;28;20027;-75
2023/12/26 10:08:48;;;;;;;17.30;12.88;;;;;;;;;;4907527;28;20086;-75
2023/12/26 10:11:15;;;;;;;14.95;10.05;;;;;;;;;;4922764;28;20518;-75
2023/12/26 10:13:49;;;;;;;11.75;7.20;;;;;;;;;;4924833;28;20051;-76
2023/12/26 10:16:15;;;;;;;12.30;7.47;;;;;;;;;;4931781;28;20031;-74
2023/12/26 10:18:42;;;;;;;11.10;6.18;;;;;;;;;;4927885;28;20569;-74
2023/12/26 10:21:09;;;;;;;11.25;6.35;;;;;;;;;;4937124;28;20035;-73
2023/12/26 10:23:39;;;;;;;11.75;5.93;;;;;;;;;;4929725;28;20051;-77
2023/12/26 10:26:05;;;;;;;9.23;5.57;;;;;;;;;;4916404;29;20118;-74
2023/12/26 10:28:38;;;;;;;10.90;5.10;;;;;;;;;;4915351;28;20035;-73
2023/12/26 10:31:12;;;;;;;12.98;5.18;;;;;;;;;;4932655;28;20042;-75
2023/12/26 10:33:39;;;;;;;8.82;4.55;;;;;;;;;;4935986;28;20039;-75
2023/12/26 10:36:05;;;;;;;8.70;4.07;;;;;;;;;;4918965;28;20035;-74
2023/12/26 10:38:32;;;;;;;9.38;4.40;;;;;;;;;;4925647;28;20032;-74
2023/12/26 10:41:05;;;;;;;9.50;4.78;;;;;;;;;;4912574;29;20058;-74
2023/12/26 10:43:32;;;;;;;9.05;4.65;;;;;;;;;;4910745;28;20062;-74
2023/12/26 10:45:59;;;;;;;9.32;4.40;;;;;;;;;;4920529;29;20019;-74
2023/12/26 10:48:32;;;;;;;9.60;4.43;;;;;;;;;;4916746;28;20494;-75
2023/12/26 10:51:01;;;;;;;8.98;4.28;;;;;;;;;;4933153;28;20035;-74
2023/12/26 10:53:34;;;;;;;8.82;4.00;;;;;;;;;;4913102;28;20039;-75
2023/12/26 10:56:01;;;;;;;9.20;3.95;;;;;;;;;;4917997;29;20596;-74
2023/12/26 10:58:31;;;;;;;7.85;3.42;;;;;;;;;;4916703;28;20565;-75
2023/12/26 11:01:17;;;;;;;8.05;3.53;;;;;;;;;;4914727;29;20474;-74
2023/12/26 11:04:02;;;;;;;7.57;3.50;;;;;;;;;;4927476;28;20105;-74
2023/12/26 11:06:46;;;;;;;8.20;3.38;;;;;;;;;;4933511;28;20091;-75
2023/12/26 11:18:05;;;;;;;7.75;3.45;;;;;;;;;;4939769;28;20050;-74
2023/12/26 11:20:31;;;;;;;8.00;3.40;;;;;;;;;;4913556;28;20035;-75
2023/12/26 11:29:06;;;;;;;7.95;3.85;;;;;;;;;;4939700;28;20501;-75
2023/12/26 11:34:36;;;;;;;8.57;3.47;;;;;;;;;;4935482;28;20126;-76
2023/12/26 11:43:09;;;;;;;8.85;3.65;;;;;;;;;;4929374;28;20038;-76
2023/12/26 11:54:28;;;;;;;8.85;3.50;;;;;;;;;;4933666;28;20150;-75
2023/12/26 11:57:13;;;;;;;7.60;3.20;;;;;;;;;;4915986;28;20027;-76
2023/12/26 12:05:27;;;;;;;8.32;3.70;;;;;;;;;;4923252;28;20832;-75
2023/12/26 12:11:12;;;;;;;8.00;3.70;;;;;;;;;;4921264;28;20370;-75
2023/12/26 12:16:50;;;;;;;8.80;3.90;;;;;;;;;;4923253;28;20800;-75
2023/12/26 12:19:16;;;;;;;10.70;5.63;;;;;;;;;;4923470;28;20059;-74
2023/12/26 12:22:01;;;;;;;9.48;4.63;;;;;;;;;;4924047;28;20414;-75
2023/12/26 12:24:27;;;;;;;8.32;4.40;;;;;;;;;;4908662;28;20725;-75
2023/12/26 12:30:00;;;;;;;9.77;4.80;;;;;;;;;;4921506;28;20106;-74
2023/12/26 12:32:45;;;;;;;9.65;4.43;;;;;;;;;;4924141;28;20054;-75
2023/12/26 13:04:52;;;;;;;11.18;6.45;;;;;;;;;;4921260;28;20402;-76
2023/12/26 13:07:37;;;;;;;12.25;6.03;;;;;;;;;;4925040;28;20554;-75
2023/12/26 13:15:51;;;;;;;15.43;6.67;;;;;;;;;;4923170;28;20071;-75
2023/12/26 13:21:21;;;;;;;10.60;5.35;;;;;;;;;;4925468;28;20116;-75
2023/12/26 13:23:47;;;;;;;9.45;5.07;;;;;;;;;;4923574;28;20070;-75
2023/12/26 13:26:32;;;;;;;11.23;6.07;;;;;;;;;;4911516;29;20707;-74
2023/12/26 13:32:01;;;;;;;9.93;4.90;;;;;;;;;;4919767;28;20105;-74
2023/12/26 13:34:46;;;;;;;10.38;5.25;;;;;;;;;;4917196;28;20035;-74
2023/12/26 13:37:12;;;;;;;11.10;5.40;;;;;;;;;;4926574;28;20042;-75
2023/12/26 13:42:23;;;;;;;10.43;5.80;;;;;;;;;;4923883;28;20073;-74
2023/12/26 13:48:12;;;;;;;9.88;4.70;;;;;;;;;;4920746;28;20038;-74
2023/12/26 13:50:57;;;;;;;10.02;5.88;;;;;;;;;;4908630;28;20031;-74
2023/12/26 13:53:41;;;;;;;9.30;4.72;;;;;;;;;;4924148;28;20134;-75
2023/12/26 13:56:26;;;;;;;10.77;6.20;;;;;;;;;;4921142;28;20031;-75
2023/12/26 13:58:53;;;;;;;11.77;6.18;;;;;;;;;;4903634;29;22173;-74
2023/12/26 14:01:38;;;;;;;12.85;8.10;;;;;;;;;;4904739;29;20422;-75
2023/12/26 14:04:22;;;;;;;10.15;5.72;;;;;;;;;;4903104;29;20066;-75
2023/12/26 14:07:07;;;;;;;8.27;4.45;;;;;;;;;;4900880;28;20046;-74
2023/12/26 14:09:52;;;;;;;9.10;4.30;;;;;;;;;;4908637;28;20530;-74
2023/12/26 14:12:37;;;;;;;11.15;4.78;;;;;;;;;;4929065;28;20089;-74
2023/12/26 14:15:22;;;;;;;9.43;5.25;;;;;;;;;;4934378;28;20039;-74
2023/12/26 14:18:08;;;;;;;9.97;4.17;;;;;;;;;;4913940;28;20248;-74
2023/12/26 14:20:35;;;;;;;13.20;4.95;;;;;;;;;;4907635;28;20035;-73
2023/12/26 14:23:01;;;;;;;8.40;4.25;;;;;;;;;;4918441;28;20145;-76
2023/12/26 14:25:46;;;;;;;9.20;5.10;;;;;;;;;;4918454;28;20031;-74
2023/12/26 14:28:12;;;;;;;7.80;3.78;;;;;;;;;;4923161;28;20039;-76
2023/12/26 14:30:38;;;;;;;9.23;4.70;;;;;;;;;;4918403;28;20114;-75
2023/12/26 14:33:04;;;;;;;11.35;6.13;;;;;;;;;;4921182;28;20141;-75
2023/12/26 14:35:30;;;;;;;10.70;6.13;;;;;;;;;;4904224;28;20031;-76
2023/12/26 14:38:15;;;;;;;10.73;6.03;;;;;;;;;;4919132;28;20085;-75
2023/12/26 14:41:01;;;;;;;8.40;4.35;;;;;;;;;;4903332;28;20093;-76
2023/12/26 14:43:27;;;;;;;;;;;;;;;;;;4922396;28;20063;-75
2023/12/26 14:46:14;;;;;;;11.75;4.95;;;;;;;;;;4904757;29;19915;-75
2023/12/26 14:48:40;;;;;;;9.10;3.70;;;;;;;;;;4906539;28;20186;-75
2023/12/26 14:51:07;;;;;;;8.80;3.90;;;;;;;;;;4907809;29;20191;-74
2023/12/26 14:53:33;;;;;;;10.05;4.70;;;;;;;;;;4922594;28;20051;-74
2023/12/26 14:56:02;;;;;;;11.00;4.10;;;;;;;;;;4923752;28;20058;-74
2023/12/26 14:58:48;;;;;;;10.63;4.93;;;;;;;;;;4906161;28;20758;-73
2023/12/26 15:01:33;;;;;;;10.77;5.28;;;;;;;;;;4919595;29;20034;-74
2023/12/26 15:03:59;;;;;;;8.85;4.57;;;;;;;;;;4936415;28;20034;-74
2023/12/26 15:06:25;;;;;;;9.05;5.75;;;;;;;;;;4924765;29;20872;-74
2023/12/26 15:08:51;;;;;;;10.25;5.28;;;;;;;;;;4910793;28;20050;-73
2023/12/26 15:11:18;;;;;;;8.63;5.03;;;;;;;;;;4925686;28;20027;-74
2023/12/26 15:13:44;;;;;;;10.18;4.55;;;;;;;;;;4909170;28;20035;-74
2023/12/26 15:16:16;;;;;;;10.02;4.65;;;;;;;;;;4913265;29;20419;-74
2023/12/26 15:18:42;;;;;;;11.02;6.90;;;;;;;;;;4920342;28;20065;-74
2023/12/26 15:21:08;;;;;;;9.20;6.13;;;;;;;;;;4908166;29;21854;-75
2023/12/26 15:23:35;;;;;;;9.68;5.28;;;;;;;;;;4904489;28;20749;-75
2023/12/26 15:26:01;;;;;;;9.52;5.13;;;;;;;;;;4923287;28;20047;-75
2023/12/26 15:28:27;;;;;;;9.07;4.38;;;;;;;;;;4919527;28;20035;-76
2023/12/26 15:30:53;;;;;;;8.30;4.50;;;;;;;;;;4927227;28;20037;-75
2023/12/26 15:33:22;;;;;;;8.77;4.60;;;;;;;;;;4927236;28;20126;-75
2023/12/26 15:35:49;;;;;;;8.50;4.38;;;;;;;;;;4925047;28;20043;-74
2023/12/26 15:38:15;;;;;;;9.65;5.65;;;;;;;;;;4926848;28;20388;-75
2023/12/26 15:40:41;;;;;;;9.80;5.82;;;;;;;;;;4908780;28;20512;-75
2023/12/26 15:43:07;;;;;;;10.93;5.72;;;;;;;;;;4904384;29;20039;-75
2023/12/26 15:45:33;;;;;;;10.60;5.65;;;;;;;;;;4922594;28;20031;-75
2023/12/26 15:48:01;;;;;;;9.95;5.45;;;;;;;;;;4924375;28;20110;-74
2023/12/26 15:50:27;;;;;;;10.25;5.63;;;;;;;;;;4906130;28;20031;-74
2023/12/26 15:52:55;;;;;;;10.73;5.35;;;;;;;;;;4924125;28;20027;-76
2023/12/26 15:55:22;;;;;;;10.23;5.90;;;;;;;;;;4928638;28;20023;-74
2023/12/26 15:57:48;;;;;;;10.25;5.60;;;;;;;;;;4922742;28;20059;-74
2023/12/26 16:00:14;;;;;;;10.90;5.55;;;;;;;;;;4924177;28;20038;-74
2023/12/26 16:02:40;;;;;;;12.35;6.40;;;;;;;;;;4904845;28;20111;-74
2023/12/26 16:05:09;;;;;;;12.38;6.20;;;;;;;;;;4908643;29;20528;-74
2023/12/26 16:07:35;;;;;;;10.25;5.50;;;;;;;;;;4907114;28;20043;-75
2023/12/26 16:10:01;;;;;;;10.00;5.28;;;;;;;;;;4925613;28;20042;-74
2023/12/26 16:12:27;;;;;;;13.20;5.70;;;;;;;;;;4924940;28;20081;-75
2023/12/26 16:14:54;;;;;;;10.75;5.50;;;;;;;;;;4930257;28;20701;-75
2023/12/26 16:17:20;;;;;;;9.65;5.25;;;;;;;;;;4925154;28;20035;-75